AirNav   Everest Fuels
 
 1386 users online  

1S8 Arlington Municipal Airport
Arlington, Oregon, USA

GOING TO ARLINGTON?


FAA INFORMATION EFFECTIVE 25 FEBRUARY 2021

Location

FAA Identifier: 1S8
Lat/Long: 45-43-21.2000N 120-10-37.1000W
45-43.353333N 120-10.618333W
45.7225556,-120.1769722
(estimated)
Elevation: 890 ft. / 271.3 m (surveyed)
Variation: 19E (1985)
From city: 1 mile NE of ARLINGTON, OR
Time zone: UTC -8 (UTC -7 during Daylight Saving Time)
Zip code: 97812

Airport Operations

Airport use: Open to the public
Activation date: 12/1943
Control tower: no
ARTCC: SEATTLE CENTER
FSS: MC MINNVILLE FLIGHT SERVICE STATION
NOTAMs facility: MMV (NOTAM-D service available)
Attendance: UNATNDD
Wind indicator: yes
Segmented circle: no

Airport Communications

CTAF: 122.9

Nearby radio navigation aids

VOR radial/distance  VOR name  Freq  Var
LTJr068/38.7KLICKITAT VOR/DME112.3021E

Airport Services

Parking: tiedowns
Airframe service: NONE
Powerplant service: NONE
Bottled oxygen: NONE
Bulk oxygen: NONE

Runway Information

Runway 6/24

Dimensions: 5000 x 50 ft. / 1524 x 15 m
RWY EDGES & ENDS NOT MKD.
Surface: turf, in good condition
LOOSE GRVL ON SFC; CNTR PORTION GRVL; SFC ROUGH DUE TO BUNCH GRASS GROWTH.
Operational restrictions: RWY HDG 070-250.
RUNWAY 6  RUNWAY 24
Latitude: 45-43.311738N45-43.395153N
Longitude: 120-11.203073W120-10.034250W
Elevation: 882.0 ft.890.0 ft.
Traffic pattern: leftright
Runway heading: 065 magnetic, 084 true245 magnetic, 264 true

Airport Ownership and Management from official FAA records

Ownership: Publicly-owned
Owner: CITY OF ARLINGTON
BOX 68
ARLINGTON, OR 97812
Phone 541-454-2743
Manager: CITY RECORDER
CITY OF ARLINGTON, BOX 68
ARLINGTON, OR 97812
Phone 541-454-2743

Airport Operational Statistics

Aircraft based on the field: 1
Single engine airplanes: 1
    
Aircraft operations: avg 76/month *
55% local general aviation
44% transient general aviation
1% air taxi
* for 12-month period ending 18 August 2020

Additional Remarks

RESTRICTED AREA EAST.
FOR CD CTC SEATTLE ARTCC AT 253-351-3694.

Instrument Procedures

There are no published instrument procedures at 1S8.

Some nearby airports with instrument procedures:

9S9 - Lexington Airport (26 nm SE)
KHRI - Hermiston Municipal Airport (39 nm E)
KDLS - Columbia Gorge Regional/The Dalles Municipal Airport (42 nm W)
KRLD - Richland Airport (50 nm NE)
KYKM - Yakima Air Terminal/McAllister Field (53 nm N)
 
Loc | Ops | Rwys | IFR | FBO | Links
Com | Nav | Svcs | Stats | Notes
Area around 1S8 (Arlington Municipal Airport)
 
Road maps at: MapQuest Bing Google
 
Aerial photo
WARNING: Photo may not be current or correct
Aerial photo of 1S8 (Arlington Municipal Airport)
Do you have a better or more recent aerial photo of Arlington Municipal Airport that you would like to share? If so, please send us your photo.

 
Sectional chart

 
Airport distance calculator
Flying to Arlington Municipal Airport? Find the distance to fly.

From to 1S8

Sunrise and sunset
Times for 05-Mar-2021
 Local
(UTC-8)
 Zulu
(UTC)
Morning civil twilight06:0314:03
Sunrise06:3314:33
Sunset17:5201:52
Evening civil twilight18:2102:21

Current date and time
Zulu (UTC)  05-Mar-2021 18:46:33
Local (UTC-8)  05-Mar-2021 10:46:33
 
METAR
K1S5 
37nm N 
051835Z AUTO 00000KT 10SM OVC110 10/02 A2994 RMK AO2 T00970019
KHRI 
39nm E 
051753Z AUTO 17016G28KT 10SM CLR 20/M07 A2994 RMK AO2 PK WND 16028/1750 SLP137 T02001067 10200 20028 58003 $
KDLS 
42nm W 
051753Z AUTO 33006KT 10SM OVC100 06/01 A2996 RMK AO2 SLP148 T00610011 10061 20000 58000
TAF
KDLS 
42nm W 
051739Z 0518/0618 32006KT P6SM BKN100 BKN250 FM052100 31012G18KT P6SM VCSH BKN050 OVC100 FM060300 30009KT P6SM VCSH OVC040 FM060700 VRB04KT P6SM VCSH OVC040
NOTAMs
Click for the latest NOTAMs
NOTAMs are issued by the DoD/FAA and will open in a separate window not controlled by AirNav.

 

 
 

Would you like to see your business listed on this page?

 If your business provides an interesting product or service to pilots, flight crews, aircraft, or users of the Arlington Municipal Airport, you should consider listing it here.  To start the listing process, click on the button below
 
Add a business
 

Other Pages about Arlington Municipal Airport

Update a link
 
Copyright © AirNav, LLC. All rights reserved. Privacy Policy  Contact